Latest Weather Observations for Yeppoon

IDQ60801

Issued at 9:02 pm EST Saturday 25 February 2017 (issued every 30 minutes, with the page automatically refreshed every 10 minutes)

About weather observations | Map of weather stations | Latest weather observations for QLD | Other Formats
Station Details ID: 033294 Name: YEPPOON THE ESPLANADE Lat: -23.14 Lon: 150.75 Height: 5.5 m
Data from the previous 72 hours. | See also: Recent months at Yeppoon
Date/Time
EST
Temp
°C
App
Temp
°C
Dew
Point
°C
Rel
Hum
%
Delta-T
°C
Wind Press
QNH
hPa
Press
MSL
hPa
Rain since
9am
mm
Dir  Spd
km/h
Gust
km/h
Spd
kts
Gust
kts
25/09:00pm 27.3 26.0 21.3 69 4.0 E 30 37 16 20 1013.1 1013.1 0.0
25/08:30pm 27.4 26.3 21.7 71 3.8 E 30 35 16 19 1012.9 1012.9 0.0
25/08:00pm 27.6 26.8 21.6 70 4.0 E 28 33 15 18 1012.7 1012.7 0.0
25/07:30pm 27.6 26.6 21.9 71 3.8 E 30 35 16 19 1012.6 1012.6 0.0
25/07:00pm 27.4 26.6 21.7 71 3.8 E 28 35 15 19 1012.3 1012.3 0.0
25/06:30pm 27.7 27.6 22.9 75 3.3 E 28 33 15 18 1012.0 1012.0 0.0
25/06:00pm 27.5 26.8 21.8 71 3.8 ENE 28 32 15 17 1011.7 1011.7 0.0
25/05:30pm 27.8 27.1 22.5 73 3.6 E 30 35 16 19 1011.5 1011.5 0.0
25/05:00pm 28.1 27.7 22.3 70 3.9 E 28 33 15 18 1011.3 1011.3 0.0
25/04:30pm 28.0 27.9 22.2 70 3.9 E 26 32 14 17 1011.1 1011.1 0.0
25/04:00pm 28.1 27.9 22.1 70 4.0 ENE 26 32 14 17 1011.2 1011.2 0.0
25/03:30pm 29.2 29.6 22.4 66 4.6 E 24 30 13 16 1011.2 1011.2 0.0
25/03:00pm 29.0 28.5 21.5 64 5.0 ESE 26 33 14 18 1011.5 1011.5 0.0
25/02:30pm 29.3 29.0 21.8 64 5.0 ESE 26 33 14 18 1011.9 1011.9 0.0
25/02:00pm 29.1 28.9 22.1 66 4.7 ESE 26 33 14 18 1012.3 1012.3 0.0
25/01:30pm 29.0 28.5 21.5 64 5.0 E 26 33 14 18 1012.8 1012.8 0.0
25/01:00pm 29.6 29.2 21.0 60 5.7 ESE 24 33 13 18 1013.1 1013.1 0.0
25/12:30pm 29.0 28.5 21.5 64 5.0 ESE 26 35 14 19 1013.4 1013.4 0.0
25/12:00pm 29.1 29.1 21.6 64 5.0 ESE 24 35 13 19 1013.7 1013.7 0.0
25/11:30am 28.7 28.6 21.5 65 4.8 ESE 24 32 13 17 1014.2 1014.2 0.0
25/11:00am 28.7 28.2 21.5 65 4.8 ESE 26 33 14 18 1014.4 1014.4 0.0
25/10:30am 28.6 28.8 20.6 62 5.3 SE 20 33 11 18 1014.5 1014.5 0.0
25/10:00am 28.2 28.1 20.7 63 5.0 ESE 22 32 12 17 1014.6 1014.6 0.0
25/09:30am 27.6 28.1 21.2 68 4.3 SSE 20 32 11 17 1014.8 1014.8 0.0
25/09:00am 27.8 28.2 20.6 65 4.7 SE 19 28 10 15 1014.7 1014.7 0.0
25/08:30am 26.9 27.4 21.2 71 3.8 SSE 20 35 11 19 1014.7 1014.7 0.0
25/08:00am 25.8 26.9 21.2 76 3.0 S 17 26 9 14 1014.5 1014.5 0.0
25/07:30am 25.1 26.8 21.0 78 2.7 S 13 24 7 13 1014.3 1014.3 0.0
25/07:00am 24.4 25.3 20.9 81 2.3 SSW 17 24 9 13 1014.0 1014.0 0.0
25/06:30am 24.2 25.9 20.9 82 2.2 SSW 13 17 7 9 1013.6 1013.6 0.0
25/06:00am 24.2 25.5 20.9 82 2.2 S 15 19 8 10 1013.4 1013.4 0.0
25/05:30am 24.6 25.9 20.9 80 2.4 SSW 15 20 8 11 1013.2 1013.2 0.0
25/05:00am 26.1 26.9 20.7 72 3.5 SE 17 24 9 13 1013.0 1013.0 0.0
25/04:30am 26.8 27.6 19.9 66 4.5 ESE 15 20 8 11 1013.0 1013.0 0.0
25/04:00am 26.8 26.7 19.9 66 4.5 ESE 20 28 11 15 1012.9 1012.9 0.0
25/03:30am 26.8 26.1 20.2 67 4.3 E 24 32 13 17 1012.8 1012.8 0.0
25/03:00am 26.9 27.2 20.7 69 4.1 ESE 20 28 11 15 1012.9 1012.9 0.0
25/02:30am 26.8 27.0 20.6 69 4.1 ESE 20 28 11 15 1013.0 1013.0 0.0
25/02:00am 27.0 27.2 21.3 71 3.8 E 22 28 12 15 1013.0 1013.0 0.0
25/01:30am 27.1 27.7 22.1 74 3.4 E 22 28 12 15 1013.2 1013.2 0.0
25/01:00am 27.3 26.6 21.8 72 3.7 E 28 33 15 18 1013.4 1013.4 0.0
25/12:30am 27.1 27.3 21.4 71 3.8 ESE 22 32 12 17 1013.6 1013.6 0.0
25/12:00am 27.4 27.3 21.4 70 4.0 ESE 24 32 13 17 1013.9 1013.9 0.0
 
Date/Time
EST
Temp
°C
App
Temp
°C
Dew
Point
°C
Rel
Hum
%
Delta-T
°C
Wind Press
QNH
hPa
Press
MSL
hPa
Rain since
9am
mm
Dir  Spd
km/h
Gust
km/h
Spd
kts
Gust
kts
24/11:30pm 27.4 27.1 21.9 72 3.7 E 26 33 14 18 1014.0 1014.0 0.0
24/11:00pm 27.5 27.2 21.8 71 3.8 E 26 33 14 18 1014.4 1014.4 0.0
24/10:30pm 27.6 27.1 22.1 72 3.7 ESE 28 35 15 19 1014.7 1014.7 0.0
24/10:00pm 27.6 27.2 22.3 73 3.6 E 28 37 15 20 1014.7 1014.7 0.0
24/09:30pm 27.8 27.5 23.2 76 3.1 E 30 35 16 19 1014.8 1014.8 0.0
24/09:00pm 27.8 27.6 23.4 77 3.0 E 30 37 16 20 1014.7 1014.7 0.0
24/08:30pm 27.8 27.5 23.2 76 3.1 E 30 35 16 19 1014.5 1014.5 0.0
24/08:00pm 27.9 28.1 23.5 77 3.0 ENE 28 33 15 18 1014.3 1014.3 0.0
24/07:30pm 27.9 28.0 23.3 76 3.1 ENE 28 35 15 19 1014.1 1014.1 0.0
24/07:00pm 27.7 27.2 22.9 75 3.3 ENE 30 35 16 19 1013.8 1013.8 0.0
24/06:30pm 27.9 27.6 23.3 76 3.1 ENE 30 35 16 19 1013.7 1013.7 0.0
24/06:00pm 28.1 28.3 23.5 76 3.2 ENE 28 33 15 18 1013.4 1013.4 0.0
24/05:30pm 28.2 28.3 23.3 75 3.4 ENE 28 35 15 19 1013.2 1013.2 0.0
24/05:00pm 28.3 28.1 23.4 75 3.4 E 30 35 16 19 1013.0 1013.0 0.0
24/04:30pm 28.4 28.5 23.3 74 3.5 E 28 32 15 17 1013.0 1013.0 0.0
24/04:00pm 28.5 28.5 23.0 72 3.8 ENE 28 35 15 19 1013.2 1013.2 0.0
24/03:30pm 29.2 29.6 23.2 70 4.1 E 26 30 14 16 1013.2 1013.2 0.0
24/03:00pm 29.3 29.7 22.5 67 4.6 E 24 32 13 17 1013.5 1013.5 0.0
24/02:30pm 29.3 29.6 23.0 69 4.3 ESE 26 35 14 19 1013.9 1013.9 0.0
24/02:00pm 29.8 30.1 23.0 67 4.7 ESE 26 33 14 18 1014.0 1014.0 0.0
24/01:30pm 29.2 29.9 22.9 69 4.3 ESE 24 35 13 19 1014.4 1014.4 0.0
24/01:00pm 28.8 30.3 23.0 71 4.0 ESE 20 26 11 14 1014.5 1014.5 0.0
24/12:30pm 28.9 30.6 22.4 68 4.4 ESE 17 26 9 14 1014.9 1014.9 0.0
24/12:00pm 28.1 29.2 22.3 70 3.9 ESE 20 30 11 16 1015.3 1015.3 0.0
24/11:30am 28.2 28.7 22.0 69 4.2 ESE 22 33 12 18 1015.6 1015.6 0.0
24/11:00am 28.3 29.1 21.3 65 4.7 SE 19 26 10 14 1015.9 1015.9 0.0
24/10:30am 28.2 28.6 21.0 65 4.8 SE 20 30 11 16 1015.9 1015.9 0.0
24/10:00am 27.9 27.9 20.2 63 5.0 SE 20 30 11 16 1016.1 1016.1 0.0
24/09:30am 27.7 27.9 20.5 65 4.7 SE 20 28 11 15 1016.3 1016.3 0.0
24/09:00am 27.0 27.1 19.9 65 4.6 SSE 19 30 10 16 1016.4 1016.4 0.0
24/08:30am 26.9 26.8 20.0 66 4.5 SSE 20 28 11 15 1016.1 1016.1 0.0
24/08:00am 26.0 27.3 20.1 70 3.8 SSE 13 20 7 11 1016.0 1016.0 0.0
24/07:30am 24.9 25.9 19.5 72 3.5 S 13 20 7 11 1015.9 1015.9 0.0
24/07:00am 24.7 26.0 19.3 72 3.5 S 11 20 6 11 1015.8 1015.8 0.0
24/06:30am 24.5 25.6 19.6 74 3.2 S 13 22 7 12 1015.6 1015.6 0.0
24/06:00am 24.4 24.7 19.7 75 3.0 S 17 24 9 13 1015.3 1015.3 0.0
24/05:30am 24.4 25.2 19.9 76 2.9 SSE 15 24 8 13 1015.1 1015.1 0.0
24/05:00am 24.8 25.3 20.1 75 3.0 SSE 17 24 9 13 1014.9 1014.9 0.0
24/04:30am 25.0 25.5 20.0 74 3.2 SSE 17 26 9 14 1014.8 1014.8 0.0
24/04:00am 25.4 25.6 20.6 75 3.1 SSE 20 28 11 15 1014.7 1014.7 0.0
24/03:30am 25.3 26.6 20.8 76 3.0 SSE 15 20 8 11 1014.5 1014.5 0.0
24/03:00am 25.4 25.8 20.6 75 3.1 SSE 19 26 10 14 1014.5 1014.5 0.0
24/02:30am 26.0 26.6 21.0 74 3.3 SSE 19 28 10 15 1014.7 1014.7 0.0
24/02:00am 26.8 26.4 20.9 70 3.9 ESE 24 33 13 18 1014.9 1014.9 0.0
24/01:30am 26.9 26.8 20.7 69 4.1 ESE 22 35 12 19 1015.4 1015.4 0.0
24/01:00am 27.0 27.2 20.6 68 4.2 SE 20 33 11 18 1015.8 1015.8 0.0
24/12:30am 27.1 27.1 20.9 69 4.1 ESE 22 35 12 19 1016.1 1016.1 0.0
24/12:00am 27.3 27.5 21.3 69 4.0 ESE 22 33 12 18 1016.1 1016.1 0.0
 
Date/Time
EST
Temp
°C
App
Temp
°C
Dew
Point
°C
Rel
Hum
%
Delta-T
°C
Wind Press
QNH
hPa
Press
MSL
hPa
Rain since
9am
mm
Dir  Spd
km/h
Gust
km/h
Spd
kts
Gust
kts
23/11:30pm 27.3 27.3 21.6 71 3.8 ESE 24 35 13 19 1016.2 1016.2 0.0
23/11:00pm 27.4 26.9 22.1 73 3.6 ESE 28 35 15 19 1016.2 1016.2 0.0
23/10:30pm 27.5 28.2 22.2 73 3.6 ESE 22 33 12 18 1016.4 1016.4 0.0
23/10:00pm 27.5 27.0 22.2 73 3.6 ESE 28 39 15 21 1016.4 1016.4 0.0
23/09:30pm 27.6 27.4 22.8 75 3.3 ESE 28 35 15 19 1016.3 1016.3 0.0
23/09:00pm 27.7 27.4 22.6 74 3.5 E 28 33 15 18 1016.1 1016.1 0.0
23/08:30pm 27.6 27.8 22.8 75 3.3 E 26 33 14 18 1015.8 1015.8 0.0
23/08:00pm 27.6 27.3 22.5 74 3.4 E 28 33 15 18 1015.4 1015.4 0.0
23/07:30pm 27.6 27.6 21.6 70 4.0 E 24 32 13 17 1015.2 1015.2 0.0
23/07:00pm 27.8 28.6 21.8 70 4.0 E 20 26 11 14 1015.0 1015.0 0.0
23/06:30pm 27.7 28.0 21.5 69 4.1 E 22 28 12 15 1014.6 1014.6 0.0
23/06:00pm 28.1 27.8 21.1 65 4.6 E 24 28 13 15 1014.4 1014.4 0.0
23/05:30pm 28.5 28.7 22.0 68 4.4 E 24 32 13 17 1014.1 1014.1 0.0
23/05:00pm 28.7 29.2 22.0 67 4.5 E 22 26 12 14 1014.0 1014.0 0.0
23/04:30pm 29.0 28.9 21.5 64 5.0 ESE 24 28 13 15 1013.9 1013.9 0.0
23/04:00pm 29.0 29.5 22.0 66 4.7 E 22 26 12 14 1014.0 1014.0 0.0
23/03:30pm 29.2 29.1 21.4 63 5.2 E 24 32 13 17 1014.0 1014.0 0.0
23/03:00pm 29.4 29.6 22.1 65 4.9 E 24 32 13 17 1014.3 1014.3 0.0
23/02:30pm 29.2 28.7 22.2 66 4.7 E 28 33 15 18 1014.7 1014.7 0.0
23/02:00pm 29.4 29.1 21.9 64 5.1 ESE 26 35 14 19 1014.9 1014.9 0.0
23/01:30pm 29.4 29.4 21.6 63 5.2 ESE 24 33 13 18 1015.3 1015.3 0.0
23/01:00pm 29.0 28.6 21.7 64 4.9 ESE 26 33 14 18 1015.5 1015.5 0.0
23/12:30pm 28.9 28.5 20.9 62 5.3 ESE 24 32 13 17 1016.0 1016.0 0.0
23/12:00pm 29.1 29.2 21.1 62 5.3 ESE 22 32 12 17 1016.2 1016.2 0.0
23/11:30am 29.2 29.7 21.2 62 5.3 ESE 20 32 11 17 1016.6 1016.6 0.0
23/11:00am 28.7 28.6 20.7 62 5.3 ESE 22 35 12 19 1016.8 1016.8 0.0
23/10:30am 28.6 28.6 20.9 63 5.1 SE 22 32 12 17 1016.9 1016.9 0.0
23/10:00am 28.4 27.9 20.7 63 5.1 ESE 24 33 13 18 1017.0 1017.0 0.0
23/09:30am 28.0 27.9 20.0 61 5.2 SE 20 32 11 17 1017.0 1017.0 0.0
23/09:00am 27.3 26.9 19.4 62 5.1 SE 20 30 11 16 1017.1 1017.1 0.0
23/08:30am 27.2 26.6 19.8 64 4.8 SSE 22 30 12 16 1017.0 1017.0 0.0
23/08:00am 26.9 26.7 19.8 65 4.6 SSE 20 30 11 16 1016.8 1016.8 0.0
23/07:30am 26.4 25.9 20.0 68 4.2 SSE 22 35 12 19 1016.5 1016.5 0.0
23/07:00am 25.6 26.4 19.9 70 3.7 SSE 15 24 8 13 1016.2 1016.2 0.0
23/06:30am 25.2 25.6 19.8 72 3.5 SSE 17 22 9 12 1016.1 1016.1 0.0
23/06:00am 25.2 25.6 19.8 72 3.5 SSE 17 22 9 12 1015.7 1015.7 0.0
23/05:30am 25.1 25.8 19.7 72 3.5 SSE 15 22 8 12 1015.5 1015.5 0.0
23/05:00am 25.2 25.6 19.8 72 3.5 SSE 17 22 9 12 1015.1 1015.1 0.0
23/04:30am 25.6 25.7 19.9 70 3.7 SSE 19 28 10 15 1014.9 1014.9 0.0
23/04:00am 25.6 26.0 19.9 70 3.7 SSE 17 28 9 15 1014.8 1014.8 0.0
23/03:30am 25.8 26.0 20.1 71 3.7 SSE 19 28 10 15 1014.8 1014.8 0.0
23/03:00am 25.8 26.7 20.1 71 3.7 SE 15 22 8 12 1014.7 1014.7 0.0
23/02:30am 26.0 25.7 19.6 68 4.1 SSE 20 30 11 16 1014.9 1014.9 0.0
23/02:00am 26.7 26.0 20.3 68 4.2 ESE 24 35 13 19 1015.0 1015.0 0.0
23/01:30am 26.7 25.4 19.8 66 4.5 ESE 26 37 14 20 1015.2 1015.2 0.0
23/01:00am 26.8 26.0 20.9 70 3.9 ESE 26 35 14 19 1015.3 1015.3 0.0
23/12:30am 26.8 25.8 20.4 68 4.2 ESE 26 39 14 21 1015.7 1015.7 0.0
23/12:00am 26.9 26.3 20.5 68 4.2 ESE 24 35 13 19 1016.1 1016.1 0.0
 
Date/Time
EST
Temp
°C
App
Temp
°C
Dew
Point
°C
Rel
Hum
%
Delta-T
°C
Wind Press
QNH
hPa
Press
MSL
hPa
Rain since
9am
mm
Dir  Spd
km/h
Gust
km/h
Spd
kts
Gust
kts
22/11:30pm 27.1 25.9 20.0 65 4.6 ESE 26 39 14 21 1016.2 1016.2 0.0
22/11:00pm 27.2 25.1 19.0 61 5.3 ESE 28 41 15 22 1016.6 1016.6 0.0
22/10:30pm 27.3 25.0 19.4 62 5.1 ESE 30 43 16 23 1016.5 1016.5 0.0
22/10:00pm 27.4 24.9 19.7 63 5.0 ESE 32 44 17 24 1016.4 1016.4 0.0
22/09:30pm 27.4 25.8 20.0 64 4.8 ESE 28 41 15 22 1016.2 1016.2 0.0

Other Formats:

Comma delimited format used in spreadsheet applications
http://www.bom.gov.au/fwo/IDQ60801/IDQ60801.94373.axf

JavaScript Object Notation format (JSON) in row-major order
http://www.bom.gov.au/fwo/IDQ60801/IDQ60801.94373.json